ADDS METAR Data INFO
IDs: Format: Raw Decoded Include TAF

Data at: 0353 UTC 18 Oct 2017

KDVO 180335Z AUTO 00000KT 10SM CLR 10/06 A3005 RMK AO2
KDVO 180315Z AUTO 36006KT 10SM CLR 10/06 A3006 RMK AO2
KDVO 180255Z AUTO 02006KT 10SM CLR 11/06 A3006 RMK AO2
KDVO 180235Z AUTO 36007KT 10SM FEW033 FEW039 12/06 A3006 RMK AO2
KDVO 180215Z AUTO 35006KT 10SM SCT032 SCT039 12/06 A3005 RMK AO2
KDVO 180155Z AUTO 36006KT 10SM CLR 13/06 A3005 RMK AO2
KDVO 180135Z AUTO 01010KT 10SM CLR 15/06 A3004 RMK AO2
KDVO 180115Z AUTO 36011KT 10SM CLR 17/06 A3005 RMK AO2
KDVO 180055Z AUTO 36010G16KT 10SM CLR 20/06 A3003 RMK AO2
KDVO 180035Z AUTO 02008G13KT 10SM CLR 24/06 A3003 RMK AO2
KDVO 180015Z AUTO VRB03KT 10SM CLR 27/04 A3003 RMK AO2
KDVO 172355Z AUTO 04004KT 10SM CLR 28/03 A3003 RMK AO2
KDVO 172335Z AUTO 00000KT 10SM CLR 27/03 A3003 RMK AO2
KDVO 172315Z AUTO 13004KT 10SM CLR 27/04 A3003 RMK AO2
KDVO 172255Z AUTO 12005KT 9SM CLR 27/03 A3004 RMK AO2
KDVO 172235Z AUTO VRB04KT 8SM CLR 27/04 A3004 RMK AO2
KDVO 172215Z AUTO 12005KT 6SM HZ CLR 27/04 A3005 RMK AO2
KDVO 172155Z AUTO 12004KT 6SM HZ CLR 27/04 A3005 RMK AO2
KDVO 172135Z AUTO 12005KT 7SM CLR 26/04 A3005 RMK AO2
KDVO 172115Z AUTO 13005KT 7SM CLR 25/04 A3006 RMK AO2
KDVO 172055Z AUTO 13006KT 7SM CLR 26/02 A3006 RMK AO2
KDVO 172035Z AUTO 12005KT 6SM HZ CLR 25/03 A3007 RMK AO2
KDVO 172015Z AUTO 13006KT 5SM HZ CLR 25/04 A3008 RMK AO2
KDVO 171955Z AUTO 00000KT 8SM CLR 25/01 A3009 RMK AO2
KDVO 171935Z AUTO 00000KT 5SM HZ CLR 25/01 A3010 RMK AO2
KDVO 171915Z AUTO 00000KT 5SM HZ CLR 24/02 A3010 RMK AO2
KDVO 171855Z AUTO 00000KT 5SM HZ CLR 22/02 A3011 RMK AO2
KDVO 171835Z AUTO 00000KT 4SM HZ CLR 21/02 A3011 RMK AO2
KDVO 171815Z AUTO 00000KT 4SM HZ CLR 20/03 A3011 RMK AO2
KDVO 171755Z AUTO 00000KT 4SM HZ CLR 18/03 A3012 RMK AO2
KDVO 171735Z AUTO 00000KT 7SM CLR 17/03 A3013 RMK AO2
KDVO 171715Z AUTO 00000KT 2 1/2SM HZ CLR 16/04 A3013 RMK AO2
KDVO 171655Z AUTO 01005KT 4SM HZ CLR 15/03 A3012 RMK AO2
KDVO 171635Z AUTO VRB03KT 3SM HZ CLR 15/04 A3012 RMK AO2
KDVO 171615Z AUTO 35003KT 3SM HZ CLR 15/03 A3012 RMK AO2
KDVO 171555Z AUTO 35005KT 2SM HZ CLR 13/03 A3011 RMK AO2
KDVO 171535Z AUTO 00000KT 2SM HZ CLR 11/03 A3011 RMK AO2
KDVO 171515Z AUTO 00000KT 2SM HZ CLR 09/02 A3010 RMK AO2
KDVO 171455Z AUTO 00000KT 2SM HZ CLR 07/01 A3009 RMK AO2
KDVO 171435Z AUTO 00000KT 3SM HZ CLR 08/02 A3009 RMK AO2
KDVO 171415Z AUTO 00000KT 9SM BKN038 SCT047 09/02 A3009 RMK AO2
KDVO 171355Z AUTO 00000KT 6SM HZ FEW030 BKN039 BKN046 08/02 A3009 RMK AO2
KDVO 171335Z AUTO 00000KT 4SM HZ FEW032 BKN041 07/01 A3008 RMK AO2
KDVO 171315Z AUTO 00000KT 3SM HZ FEW032 BKN042 08/01 A3007 RMK AO2
KDVO 171255Z AUTO 00000KT 9SM SCT042 09/01 A3007 RMK AO2
KDVO 171235Z AUTO 00000KT 5SM HZ CLR 09/01 A3007 RMK AO2
KDVO 171215Z AUTO 00000KT 3SM HZ SCT042 09/01 A3007 RMK AO2
KDVO 171155Z AUTO 00000KT 4SM HZ BKN042 BKN048 08/01 A3006 RMK AO2
KDVO 171135Z AUTO 00000KT 3SM HZ BKN042 09/02 A3006 RMK AO2
KDVO 171115Z AUTO 00000KT 3SM HZ BKN042 10/02 A3006 RMK AO2
KDVO 171055Z AUTO 00000KT 4SM HZ OVC043 09/01 A3006 RMK AO2
KDVO 171035Z AUTO 00000KT 9SM OVC045 09/00 A3007 RMK AO2
KDVO 171015Z AUTO 00000KT 8SM OVC046 10/00 A3008 RMK AO2
KDVO 170955Z AUTO 00000KT 9SM OVC048 10/00 A3008 RMK AO2
KDVO 170935Z AUTO 00000KT 10SM OVC048 09/00 A3008 RMK AO2
KDVO 170915Z AUTO 00000KT 3SM HZ OVC046 08/00 A3008 RMK AO2
KDVO 170855Z AUTO 00000KT 6SM HZ OVC046 10/04 A3008 RMK AO2
KDVO 170835Z AUTO 00000KT 5SM HZ FEW037 OVC046 10/03 A3008 RMK AO2
KDVO 170815Z AUTO 00000KT 4SM HZ BKN037 OVC044 10/02 A3008 RMK AO2
KDVO 170755Z AUTO 35005KT 3SM HZ OVC042 09/01 A3008 RMK AO2
KDVO 170735Z AUTO 00000KT 3SM HZ OVC043 07/01 A3007 RMK AO2
KDVO 170715Z AUTO 00000KT 4SM HZ SCT035 OVC043 08/02 A3007 RMK AO2
KDVO 170655Z AUTO 00000KT 8SM OVC035 12/03 A3007 RMK AO2
KDVO 170635Z AUTO 00000KT 4SM HZ OVC036 11/04 A3007 RMK AO2
KDVO 170615Z AUTO 00000KT 5SM HZ OVC038 11/02 A3007 RMK AO2
KDVO 170555Z AUTO 01003KT 4SM HZ OVC039 11/M01 A3007 RMK AO2
KDVO 170535Z AUTO 00000KT 3SM HZ OVC039 13/00 A3006 RMK AO2
KDVO 170515Z AUTO 00000KT 2SM HZ FEW027 OVC038 09/00 A3006 RMK AO2
KDVO 170455Z AUTO 19003KT 2 1/2SM HZ OVC027 14/02 A3006 RMK AO2
KDVO 170435Z AUTO 00000KT 2 1/2SM HZ OVC027 14/M00 A3006 RMK AO2
KDVO 170415Z AUTO 00000KT 2 1/2SM HZ BKN026 OVC041 14/00 A3006 RMK AO2
KDVO 170355Z AUTO 00000KT 6SM HZ BKN028 OVC035 16/02 A3006 RMK AO2
KDVO 170335Z AUTO 21003KT 6SM HZ OVC029 15/04 A3005 RMK AO2
KDVO 170315Z AUTO 00000KT 7SM OVC030 15/03 A3005 RMK AO2
KDVO 170255Z AUTO 21003KT 10SM BKN030 OVC035 18/02 A3005 RMK AO2
KDVO 170235Z AUTO 00000KT 8SM BKN035 OVC043 19/01 A3005 RMK AO2
KDVO 170215Z AUTO 00000KT 9SM OVC042 19/00 A3004 RMK AO2
KDVO 170155Z AUTO 19005KT 10SM BKN042 OVC047 21/03 A3004 RMK AO2
KDVO 170135Z AUTO 22003KT 10SM SCT043 22/02 A3003 RMK AO2
KDVO 170115Z AUTO 00000KT 10SM CLR 24/01 A3004 RMK AO2
KDVO 170055Z AUTO 00000KT 10SM CLR 25/01 A3004 RMK AO2
KDVO 170035Z AUTO 00000KT 10SM CLR 27/01 A3004 RMK AO2
KDVO 170015Z AUTO 18003KT 10SM CLR 27/00 A3004 RMK AO2
KDVO 162355Z AUTO 00000KT 10SM CLR 26/04 A3005 RMK AO2
KDVO 162335Z AUTO 11004KT 10SM CLR 27/M00 A3005 RMK AO2
KDVO 162315Z AUTO 00000KT 10SM CLR 27/M01 A3006 RMK AO2
KDVO 162255Z AUTO 00000KT 10SM CLR 28/M03 A3006 RMK AO2
KDVO 162230Z AUTO 13005KT 10SM CLR 27/M01 A3007 RMK AO2
KDVO 162215Z AUTO 15006KT 10SM CLR 28/M03 A3007 RMK AO2
KDVO 162155Z AUTO 12006KT 10SM CLR 28/M02 A3007 RMK AO2
KDVO 162135Z AUTO 14005KT 10SM CLR 28/M02 A3008 RMK AO2
KDVO 162115Z AUTO 13004KT 10SM CLR 27/M02 A3009 RMK AO2
KDVO 162055Z AUTO 14004KT 10SM CLR 26/M01 A3010 RMK AO2
KDVO 162035Z AUTO VRB06KT 10SM CLR 25/01 A3011 RMK AO2
KDVO 162015Z AUTO 12006KT 10SM CLR 24/01 A3012 RMK AO2
KDVO 161955Z AUTO 13006KT 10SM CLR 25/02 A3013 RMK AO2
KDVO 161935Z AUTO 12007KT 10SM CLR 23/03 A3014 RMK AO2
KDVO 161915Z AUTO 13006KT 10SM CLR 24/02 A3014 RMK AO2
KDVO 161855Z AUTO 13007KT 10SM CLR 23/01 A3015 RMK AO2
KDVO 161835Z AUTO 13005KT 10SM CLR 23/01 A3016 RMK AO2
KDVO 161815Z AUTO VRB04KT 10SM CLR 22/02 A3016 RMK AO2
KDVO 161755Z AUTO VRB04KT 10SM CLR 21/02 A3017 RMK AO2
KDVO 161735Z AUTO 00000KT 10SM CLR 19/02 A3018 RMK AO2
KDVO 161715Z AUTO 00000KT 9SM CLR 17/04 A3018 RMK AO2
KDVO 161655Z AUTO 00000KT 9SM CLR 15/04 A3018 RMK AO2
KDVO 161635Z AUTO 00000KT 9SM CLR 13/04 A3018 RMK AO2
KDVO 161615Z AUTO 00000KT 10SM CLR 12/03 A3018 RMK AO2
KDVO 161555Z AUTO 00000KT 10SM FEW030 10/02 A3017 RMK AO2